createdAt,value
2023-02-11T00:00:15.573Z,97139.16
2023-02-11T00:02:42.395Z,97126.44
2023-02-11T00:05:09.301Z,97138.81
2023-02-11T00:07:36.284Z,97140.09
2023-02-11T00:10:04.386Z,97138.84
2023-02-11T00:12:31.362Z,97132.56
2023-02-11T00:14:57.977Z,97135.84
2023-02-11T00:17:24.573Z,97139.22
2023-02-11T00:19:52.419Z,97130.44
2023-02-11T00:22:19.001Z,97114.94
2023-02-11T00:24:45.744Z,97127.31
2023-02-11T00:27:12.408Z,97130.84
2023-02-11T00:29:39.298Z,97125.75
2023-02-11T00:32:07.169Z,97123.69
2023-02-11T00:34:34.778Z,97108.94
2023-02-11T00:37:01.620Z,97105.59
2023-02-11T00:39:28.475Z,97117.19
2023-02-11T00:41:55.154Z,97114.78
2023-02-11T00:44:21.789Z,97119.41
2023-02-11T00:46:48.392Z,97111.28
2023-02-11T00:49:15.056Z,97115.91
2023-02-11T00:51:41.948Z,97093.16
2023-02-11T00:54:08.621Z,97112.69
2023-02-11T00:56:35.486Z,97102.91
2023-02-11T00:59:02.132Z,97109.34
2023-02-11T01:01:28.771Z,97110.53
2023-02-11T01:03:55.618Z,97105.69
2023-02-11T01:06:22.189Z,97099.19
2023-02-11T01:08:48.780Z,97108.53
2023-02-11T01:11:19.647Z,97099.72
2023-02-11T01:13:47.905Z,97105.38
2023-02-11T01:16:14.933Z,97102.63
2023-02-11T01:18:44.414Z,97092.03
2023-02-11T01:21:12.009Z,97090.97
2023-02-11T01:23:38.705Z,97091.03
2023-02-11T01:26:05.538Z,97097.59
2023-02-11T01:28:32.764Z,97096.53
2023-02-11T01:31:03.359Z,97098.56
2023-02-11T01:33:30.464Z,97101.25
2023-02-11T01:36:01.917Z,97099.94
2023-02-11T01:38:28.820Z,97101.25
2023-02-11T01:41:00.406Z,97094.22
2023-02-11T01:43:31.172Z,97095.44
2023-02-11T01:46:34.139Z,97090.28
2023-02-11T01:49:03.875Z,97094.91
2023-02-11T01:51:39.766Z,97076.84
2023-02-11T01:54:27.874Z,97086.72
2023-02-11T01:57:17.698Z,97073.78
2023-02-11T01:59:59.267Z,97069.44
2023-02-11T02:02:34.501Z,97068.09
2023-02-11T02:05:10.161Z,97062.47
2023-02-11T02:07:52.678Z,97062.47
2023-02-11T02:10:24.431Z,97063.19
2023-02-11T02:12:51.093Z,97055.88
2023-02-11T02:15:30.710Z,97042.66
2023-02-11T02:18:01.969Z,97060.97
2023-02-11T02:20:53.920Z,97039.81
2023-02-11T02:23:32.396Z,97057.53
2023-02-11T02:26:10.744Z,97052.75
2023-02-11T02:29:19.615Z,97041.38
2023-02-11T02:32:03.875Z,97053.66
2023-02-11T02:34:36.332Z,97043.88
2023-02-11T02:37:10.269Z,97037.44
2023-02-11T02:39:37.706Z,97037.69
2023-02-11T02:42:05.707Z,97036.41
2023-02-11T02:44:32.478Z,97031.13
2023-02-11T02:46:59.100Z,97027.06
2023-02-11T02:49:25.713Z,97018.56
2023-02-11T02:52:01.551Z,97032.19
2023-02-11T02:54:49.721Z,97026.38
2023-02-11T02:57:34.676Z,97029.91
2023-02-11T03:00:17.399Z,97020.41
2023-02-11T03:03:05.342Z,97020.63
2023-02-11T03:05:50.230Z,97021.22
2023-02-11T03:08:19.070Z,97012.19
2023-02-11T03:10:49.702Z,97012.41
2023-02-11T03:13:20.933Z,96999.34
2023-02-11T03:15:51.137Z,96997.44
2023-02-11T03:18:24.655Z,97011.88
2023-02-11T03:20:54.437Z,97009.22
2023-02-11T03:23:30.897Z,97002.56
2023-02-11T03:26:09.153Z,97003.00
2023-02-11T03:28:59.335Z,97011.88
2023-02-11T03:32:07.563Z,97014.66
2023-02-11T03:34:54.305Z,97002.78
2023-02-11T03:37:30.856Z,97012.09
2023-02-11T03:40:08.411Z,97018.72
2023-02-11T03:42:52.317Z,97016.94
2023-02-11T03:45:22.073Z,97003.09
2023-02-11T03:48:17.436Z,97003.13
2023-02-11T03:50:47.035Z,96995.38
2023-02-11T03:53:15.358Z,96990.50
2023-02-11T03:55:44.209Z,96989.75
2023-02-11T03:58:11.310Z,96972.44
2023-02-11T04:00:42.313Z,96978.28
2023-02-11T04:03:10.356Z,96995.31
2023-02-11T04:05:37.952Z,96999.53
2023-02-11T04:08:05.411Z,97002.84
2023-02-11T04:10:31.990Z,97003.66
2023-02-11T04:13:00.049Z,97002.34
2023-02-11T04:15:26.739Z,96996.13
2023-02-11T04:17:53.327Z,96998.66
2023-02-11T04:20:20.198Z,97009.44
2023-02-11T04:22:46.798Z,97008.69
2023-02-11T04:25:13.666Z,96995.69
2023-02-11T04:27:40.469Z,97004.16
2023-02-11T04:30:08.908Z,97003.28
2023-02-11T04:32:35.544Z,96988.47
2023-02-11T04:35:03.145Z,96982.72
2023-02-11T04:37:29.881Z,97000.75
2023-02-11T04:39:56.577Z,97001.28
2023-02-11T04:42:24.270Z,97004.72
2023-02-11T04:44:50.840Z,96985.91
2023-02-11T04:47:17.458Z,96979.81
2023-02-11T04:49:44.047Z,96978.31
2023-02-11T04:52:11.012Z,96981.41
2023-02-11T04:54:37.685Z,96983.75
2023-02-11T04:57:04.338Z,96979.59
2023-02-11T04:59:30.931Z,96983.88
2023-02-11T05:01:57.581Z,96980.78
2023-02-11T05:04:24.398Z,96978.19
2023-02-11T05:06:51.107Z,96978.94
2023-02-11T05:09:17.796Z,96984.81
2023-02-11T05:11:44.442Z,96991.19
2023-02-11T05:14:11.091Z,96981.94
2023-02-11T05:16:38.069Z,96976.88
2023-02-11T05:19:04.952Z,96981.13
2023-02-11T05:21:31.616Z,96984.72
2023-02-11T05:23:58.573Z,96982.06
2023-02-11T05:26:25.408Z,96976.09
2023-02-11T05:28:52.229Z,96979.00
2023-02-11T05:31:18.943Z,96973.38
2023-02-11T05:33:45.906Z,96979.06
2023-02-11T05:36:13.505Z,96971.34
2023-02-11T05:38:40.920Z,96973.63
2023-02-11T05:41:07.618Z,96960.03
2023-02-11T05:43:35.456Z,96983.56
2023-02-11T05:46:03.205Z,96994.16
2023-02-11T05:48:30.411Z,96999.13
2023-02-11T05:50:57.045Z,96989.84
2023-02-11T05:53:23.694Z,96984.72
2023-02-11T05:55:50.704Z,96993.44
2023-02-11T05:58:17.468Z,96989.22
2023-02-11T06:00:44.000Z,96995.53
2023-02-11T06:03:10.627Z,96979.00
2023-02-11T06:05:37.319Z,96996.22
2023-02-11T06:08:04.134Z,96983.59
2023-02-11T06:10:30.766Z,96996.53
2023-02-11T06:12:57.475Z,96993.97
2023-02-11T06:15:24.099Z,96998.13
2023-02-11T06:17:50.691Z,97000.16
2023-02-11T06:20:17.387Z,96995.91
2023-02-11T06:22:44.178Z,97004.06
2023-02-11T06:25:11.483Z,96998.25
2023-02-11T06:27:39.004Z,97000.69
2023-02-11T06:30:07.107Z,96998.53
2023-02-11T06:32:49.381Z,97003.59
2023-02-11T06:35:15.978Z,97002.63
2023-02-11T06:37:42.995Z,96983.84
2023-02-11T06:40:11.026Z,96993.69
2023-02-11T06:42:39.163Z,96993.00
2023-02-11T06:45:09.187Z,97004.03
2023-02-11T06:47:35.735Z,97009.72
2023-02-11T06:50:02.416Z,96992.09
2023-02-11T06:52:29.275Z,97005.81
2023-02-11T06:54:55.964Z,97004.75
2023-02-11T06:57:22.567Z,96995.97
2023-02-11T06:59:49.320Z,97011.22
2023-02-11T07:02:16.778Z,97012.81
2023-02-11T07:04:44.589Z,97022.59
2023-02-11T07:07:11.289Z,97020.69
2023-02-11T07:09:37.880Z,97030.59
2023-02-11T07:12:04.804Z,97016.41
2023-02-11T07:14:31.437Z,97030.09
2023-02-11T07:16:58.320Z,97041.19
2023-02-11T07:19:24.958Z,97045.56
2023-02-11T07:21:51.710Z,97050.94
2023-02-11T07:24:18.249Z,97056.63
2023-02-11T07:26:44.946Z,97055.06
2023-02-11T07:29:11.693Z,97059.81
2023-02-11T07:31:38.332Z,97057.41
2023-02-11T07:34:05.025Z,97045.63
2023-02-11T07:36:32.403Z,97050.22
2023-02-11T07:39:00.048Z,97041.28
2023-02-11T07:41:27.409Z,97038.94
2023-02-11T07:43:54.620Z,97042.06
2023-02-11T07:46:24.348Z,97044.72
2023-02-11T07:48:51.535Z,97058.75
2023-02-11T07:51:21.511Z,97020.53
2023-02-11T07:53:48.466Z,97042.81
2023-02-11T07:56:17.559Z,97049.66
2023-02-11T07:58:44.872Z,97060.53
2023-02-11T08:01:14.830Z,97051.53
2023-02-11T08:03:44.953Z,97052.59
2023-02-11T08:06:16.935Z,97063.72
2023-02-11T08:08:43.848Z,97069.66
2023-02-11T08:11:16.782Z,97074.59
2023-02-11T08:13:43.823Z,97077.19
2023-02-11T08:16:19.370Z,97069.38
2023-02-11T08:18:46.530Z,97061.06
2023-02-11T08:21:13.311Z,97064.16
2023-02-11T08:23:41.569Z,97018.91
2023-02-11T08:26:12.391Z,97047.53
2023-02-11T08:28:41.031Z,97049.53
2023-02-11T08:31:16.635Z,97052.53
2023-02-11T08:33:43.826Z,97056.38
2023-02-11T08:36:12.644Z,97062.84
2023-02-11T08:38:39.304Z,97054.00
2023-02-11T08:41:06.574Z,97057.75
2023-02-11T08:43:33.452Z,97054.84
2023-02-11T08:46:02.211Z,97051.69
2023-02-11T08:48:29.806Z,97051.09
2023-02-11T08:50:57.354Z,97042.00
2023-02-11T08:53:24.514Z,97042.72
2023-02-11T08:55:55.531Z,97041.63
2023-02-11T08:58:22.803Z,97039.25
2023-02-11T09:00:50.396Z,97029.06
2023-02-11T09:03:17.640Z,97015.72
2023-02-11T09:05:45.798Z,97025.59
2023-02-11T09:08:13.734Z,97027.16
2023-02-11T09:10:40.748Z,97028.88
2023-02-11T09:13:07.888Z,97035.47
2023-02-11T09:15:34.785Z,97031.34
2023-02-11T09:18:03.440Z,97038.19
2023-02-11T09:20:30.228Z,97013.13
2023-02-11T09:22:58.623Z,97027.59
2023-02-11T09:25:25.763Z,97021.34
2023-02-11T09:27:53.764Z,97018.44
2023-02-11T09:30:20.995Z,96998.63
2023-02-11T09:32:47.867Z,97019.72
2023-02-11T09:35:14.692Z,96999.16
2023-02-11T09:37:41.491Z,97014.50
2023-02-11T09:40:08.722Z,97005.50
2023-02-11T09:43:01.730Z,97001.31
2023-02-11T09:45:31.172Z,97011.16
2023-02-11T09:48:06.462Z,97009.31
2023-02-11T09:50:40.539Z,97014.63
2023-02-11T09:53:15.551Z,97011.34
2023-02-11T09:55:46.679Z,97017.50
2023-02-11T09:58:25.681Z,97012.88
2023-02-11T10:01:13.854Z,97008.75
2023-02-11T10:04:14.578Z,97013.19
2023-02-11T10:06:45.525Z,97012.75
2023-02-11T10:09:53.976Z,97017.72
2023-02-11T10:12:43.105Z,97015.38
2023-02-11T10:15:36.368Z,97027.19
2023-02-11T10:18:15.877Z,97020.97
2023-02-11T10:20:48.953Z,97032.38
2023-02-11T10:23:29.424Z,97018.44
2023-02-11T10:25:59.050Z,97019.97
2023-02-11T10:28:32.764Z,97017.56
2023-02-11T10:31:15.808Z,97022.19
2023-02-11T10:34:10.323Z,97017.78
2023-02-11T10:36:41.162Z,97031.72
2023-02-11T10:39:15.435Z,97021.63
2023-02-11T10:41:46.952Z,97020.88
2023-02-11T10:44:51.651Z,97018.25
2023-02-11T10:47:22.688Z,97010.28
2023-02-11T10:49:49.935Z,97007.81
2023-02-11T10:52:25.496Z,96992.13
2023-02-11T10:55:02.594Z,96984.41
2023-02-11T10:57:37.043Z,96988.00
2023-02-11T11:00:27.340Z,96979.06
2023-02-11T11:03:00.253Z,96967.66
2023-02-11T11:05:31.737Z,96975.94
2023-02-11T11:08:06.878Z,96977.88
2023-02-11T11:10:43.353Z,96970.34
2023-02-11T11:13:37.731Z,96961.66
2023-02-11T11:16:11.855Z,96956.66
2023-02-11T11:18:44.398Z,96963.31
2023-02-11T11:21:19.333Z,96961.91
2023-02-11T11:24:01.065Z,96964.25
2023-02-11T11:27:01.965Z,96966.25
2023-02-11T11:29:37.382Z,96958.84
2023-02-11T11:32:22.356Z,96943.31
2023-02-11T11:35:21.785Z,96956.41
2023-02-11T11:37:54.470Z,96953.28
2023-02-11T11:40:21.933Z,96950.56
2023-02-11T11:43:02.735Z,96954.38
2023-02-11T11:45:29.904Z,96951.63
2023-02-11T11:48:03.114Z,96947.44
2023-02-11T11:50:56.181Z,96940.53
2023-02-11T11:53:40.844Z,96946.22
2023-02-11T11:56:14.392Z,96934.84
2023-02-11T11:58:41.298Z,96934.97
2023-02-11T12:01:26.508Z,96934.06
2023-02-11T12:04:14.244Z,96933.59
2023-02-11T12:06:46.927Z,96937.28
2023-02-11T12:09:13.455Z,96933.44
2023-02-11T12:11:40.139Z,96931.06
2023-02-11T12:14:26.550Z,96923.78
2023-02-11T12:17:30.379Z,96928.59
2023-02-11T12:20:18.235Z,96926.03
2023-02-11T12:23:04.034Z,96910.88
2023-02-11T12:25:44.030Z,96924.41
2023-02-11T12:28:31.831Z,96919.09
2023-02-11T12:31:08.540Z,96921.16
2023-02-11T12:33:59.726Z,96923.53
2023-02-11T12:37:07.820Z,96926.25
2023-02-11T12:40:13.602Z,96909.78
2023-02-11T12:43:02.631Z,96903.09
2023-02-11T12:45:35.139Z,96906.13
2023-02-11T12:48:17.058Z,96909.56
2023-02-11T12:50:59.189Z,96901.88
2023-02-11T12:53:56.841Z,96895.78
2023-02-11T12:56:33.324Z,96887.78
2023-02-11T12:59:04.752Z,96872.56
2023-02-11T13:01:39.944Z,96883.38
2023-02-11T13:04:13.894Z,96883.81
2023-02-11T13:06:45.163Z,96872.63
2023-02-11T13:09:19.100Z,96867.91
2023-02-11T13:11:52.087Z,96875.84
2023-02-11T13:14:35.471Z,96872.38
2023-02-11T13:17:16.163Z,96876.63
2023-02-11T13:19:59.333Z,96876.63
2023-02-11T13:22:41.442Z,96877.03
2023-02-11T13:25:25.535Z,96871.91
2023-02-11T13:28:12.242Z,96875.28
2023-02-11T13:30:47.107Z,96872.84
2023-02-11T13:33:20.303Z,96869.13
2023-02-11T13:36:09.601Z,96860.56
2023-02-11T13:38:37.596Z,96868.13
2023-02-11T13:41:21.389Z,96862.63
2023-02-11T13:44:22.294Z,96860.38
2023-02-11T13:46:53.921Z,96858.38
2023-02-11T13:49:42.439Z,96853.47
2023-02-11T13:52:24.694Z,96835.66
2023-02-11T13:54:54.725Z,96851.22
2023-02-11T13:57:21.381Z,96844.69
2023-02-11T13:59:53.194Z,96850.19
2023-02-11T14:02:49.154Z,96847.13
2023-02-11T14:05:42.831Z,96833.56
2023-02-11T14:08:28.019Z,96837.22
2023-02-11T14:11:08.452Z,96834.31
2023-02-11T14:13:37.065Z,96829.56
2023-02-11T14:16:20.423Z,96839.88
2023-02-11T14:18:55.121Z,96841.16
2023-02-11T14:21:27.902Z,96831.22
2023-02-11T14:24:14.499Z,96843.41
2023-02-11T14:26:50.291Z,96833.69
2023-02-11T14:29:24.544Z,96833.81
2023-02-11T14:32:00.554Z,96830.41
2023-02-11T14:34:33.319Z,96828.81
2023-02-11T14:37:33.408Z,96840.56
2023-02-11T14:40:29.401Z,96838.00
2023-02-11T14:43:00.689Z,96829.47
2023-02-11T14:45:29.049Z,96830.50
2023-02-11T14:48:04.293Z,96834.69
2023-02-11T14:50:41.865Z,96829.28
2023-02-11T14:53:15.561Z,96837.91
2023-02-11T14:55:44.792Z,96832.25
2023-02-11T14:58:18.863Z,96816.31
2023-02-11T15:00:53.864Z,96828.16
2023-02-11T15:03:38.694Z,96824.41
2023-02-11T15:06:12.753Z,96827.50
2023-02-11T15:08:45.933Z,96827.06
2023-02-11T15:11:17.404Z,96840.63
2023-02-11T15:13:47.663Z,96833.56
2023-02-11T15:16:18.673Z,96825.94
2023-02-11T15:18:55.192Z,96832.78
2023-02-11T15:21:29.903Z,96825.06
2023-02-11T15:24:03.736Z,96832.53
2023-02-11T15:26:30.506Z,96840.97
2023-02-11T15:28:58.131Z,96836.56
2023-02-11T15:31:28.956Z,96830.81
2023-02-11T15:33:55.706Z,96825.56
2023-02-11T15:36:28.814Z,96833.16
2023-02-11T15:39:18.962Z,96827.53
2023-02-11T15:41:45.713Z,96827.53
2023-02-11T15:44:29.248Z,96818.00
2023-02-11T15:46:55.900Z,96828.75
2023-02-11T15:49:24.543Z,96827.78
2023-02-11T15:51:52.896Z,96827.97
2023-02-11T15:54:24.029Z,96819.59
2023-02-11T15:56:59.588Z,96819.16
2023-02-11T15:59:38.993Z,96824.72
2023-02-11T16:02:14.308Z,96822.97
2023-02-11T16:04:51.237Z,96829.19
2023-02-11T16:07:41.069Z,96823.88
2023-02-11T16:10:29.995Z,96830.75
2023-02-11T16:13:08.570Z,96836.97
2023-02-11T16:15:35.196Z,96837.34
2023-02-11T16:18:12.689Z,96831.84
2023-02-11T16:20:39.643Z,96826.28
2023-02-11T16:23:07.909Z,96845.44
2023-02-11T16:25:37.942Z,96842.44
2023-02-11T16:28:05.371Z,96836.31
2023-02-11T16:30:40.651Z,96842.00
2023-02-11T16:33:11.021Z,96852.59
2023-02-11T16:35:38.289Z,96844.53
2023-02-11T16:38:05.058Z,96851.31
2023-02-11T16:40:31.863Z,96857.88
2023-02-11T16:42:58.549Z,96855.16
2023-02-11T16:45:25.335Z,96858.84
2023-02-11T16:47:51.947Z,96863.59
2023-02-11T16:50:23.821Z,96856.19
2023-02-11T16:52:52.489Z,96839.78
2023-02-11T16:55:19.177Z,96858.69
2023-02-11T16:57:47.522Z,96854.59
2023-02-11T17:00:16.571Z,96854.31
2023-02-11T17:02:43.953Z,96866.00
2023-02-11T17:05:23.047Z,96862.16
2023-02-11T17:07:49.902Z,96866.78
2023-02-11T17:10:19.991Z,96867.50
2023-02-11T17:12:48.254Z,96867.38
2023-02-11T17:15:15.423Z,96873.72
2023-02-11T17:17:41.996Z,96877.53
2023-02-11T17:20:11.833Z,96878.25
2023-02-11T17:22:38.513Z,96863.38
2023-02-11T17:25:05.308Z,96879.06
2023-02-11T17:27:32.118Z,96872.38
2023-02-11T17:29:58.794Z,96884.31
2023-02-11T17:32:25.574Z,96885.00
2023-02-11T17:34:53.566Z,96887.72
2023-02-11T17:37:20.360Z,96892.06
2023-02-11T17:39:49.236Z,96889.13
2023-02-11T17:42:16.090Z,96878.47
2023-02-11T17:44:44.374Z,96880.28
2023-02-11T17:47:11.711Z,96883.81
2023-02-11T17:49:39.259Z,96882.38
2023-02-11T17:52:06.052Z,96894.03
2023-02-11T17:54:32.704Z,96896.44
2023-02-11T17:56:59.352Z,96891.31
2023-02-11T17:59:26.516Z,96898.41
2023-02-11T18:01:53.183Z,96889.47
2023-02-11T18:04:20.034Z,96895.63
2023-02-11T18:06:46.798Z,96881.69
2023-02-11T18:09:13.816Z,96900.16
2023-02-11T18:11:40.966Z,96909.28
2023-02-11T18:14:08.506Z,96912.06
2023-02-11T18:16:36.572Z,96899.66
2023-02-11T18:19:03.592Z,96912.66
2023-02-11T18:21:30.444Z,96915.78
2023-02-11T18:23:57.307Z,96920.75
2023-02-11T18:26:28.146Z,96916.72
2023-02-11T18:28:57.972Z,96907.88
2023-02-11T18:31:26.431Z,96894.31
2023-02-11T18:33:53.810Z,96915.69
2023-02-11T18:36:21.312Z,96913.03
2023-02-11T18:38:48.296Z,96908.44
2023-02-11T18:41:15.109Z,96919.22
2023-02-11T18:43:43.060Z,96913.31
2023-02-11T18:46:12.569Z,96920.59
2023-02-11T18:48:39.495Z,96921.25
2023-02-11T18:51:11.942Z,96920.66
2023-02-11T18:53:38.724Z,96926.91
2023-02-11T18:56:14.231Z,96926.59
2023-02-11T18:58:40.838Z,96928.13
2023-02-11T19:01:27.993Z,96935.41
2023-02-11T19:03:57.393Z,96938.00
2023-02-11T19:06:27.296Z,96942.22
2023-02-11T19:08:59.024Z,96935.09
2023-02-11T19:11:45.232Z,96936.19
2023-02-11T19:14:12.101Z,96941.09
2023-02-11T19:16:43.470Z,96926.81
2023-02-11T19:19:10.492Z,96934.03
2023-02-11T19:21:37.160Z,96930.31
2023-02-11T19:24:08.351Z,96930.91
2023-02-11T19:26:35.724Z,96943.81
2023-02-11T19:29:02.565Z,96939.69
2023-02-11T19:31:32.167Z,96938.16
2023-02-11T19:33:59.777Z,96945.59
2023-02-11T19:36:26.694Z,96944.06
2023-02-11T19:38:53.643Z,96947.47
2023-02-11T19:41:22.494Z,96944.75
2023-02-11T19:43:53.617Z,96942.38
2023-02-11T19:46:21.457Z,96954.81
2023-02-11T19:48:49.052Z,96962.84
2023-02-11T19:51:16.792Z,96970.56
2023-02-11T19:53:44.703Z,96964.22
2023-02-11T19:56:12.820Z,96963.94
2023-02-11T19:58:41.160Z,96961.84
2023-02-11T20:01:10.068Z,96961.56
2023-02-11T20:03:37.175Z,96959.63
2023-02-11T20:06:15.291Z,96967.72
2023-02-11T20:08:41.854Z,96964.69
2023-02-11T20:11:10.510Z,96974.81
2023-02-11T20:13:38.614Z,96978.34
2023-02-11T20:16:10.710Z,96957.22
2023-02-11T20:18:37.322Z,96965.22
2023-02-11T20:21:09.167Z,96968.63
2023-02-11T20:23:36.408Z,96976.44
2023-02-11T20:26:07.348Z,96973.34
2023-02-11T20:28:34.185Z,96962.91
2023-02-11T20:31:01.066Z,96964.25
2023-02-11T20:33:29.862Z,96971.66
2023-02-11T20:36:01.902Z,96974.81
2023-02-11T20:38:28.596Z,96972.63
2023-02-11T20:40:55.811Z,96976.84
2023-02-11T20:43:23.101Z,96975.34
2023-02-11T20:45:50.112Z,96971.72
2023-02-11T20:48:16.830Z,96974.38
2023-02-11T20:50:44.252Z,96976.69
2023-02-11T20:53:12.016Z,96958.91
2023-02-11T20:55:39.468Z,96969.78
2023-02-11T20:58:07.349Z,96968.00
2023-02-11T21:00:36.922Z,96969.72
2023-02-11T21:03:04.671Z,96974.41
2023-02-11T21:05:31.482Z,96964.78
2023-02-11T21:07:58.138Z,96966.59
2023-02-11T21:10:24.836Z,96968.75
2023-02-11T21:12:51.411Z,96973.94
2023-02-11T21:15:18.010Z,96978.94
2023-02-11T21:17:44.648Z,96960.47
2023-02-11T21:20:11.768Z,96960.81
2023-02-11T21:22:38.364Z,96968.59
2023-02-11T21:25:06.168Z,96972.97
2023-02-11T21:27:33.838Z,96983.84
2023-02-11T21:30:01.383Z,96986.22
2023-02-11T21:32:27.980Z,96975.09
2023-02-11T21:34:54.887Z,96977.66
2023-02-11T21:37:23.184Z,96985.44
2023-02-11T21:39:50.015Z,96975.63
2023-02-11T21:42:16.734Z,96972.78
2023-02-11T21:44:43.409Z,96972.78
2023-02-11T21:47:10.044Z,96977.66
2023-02-11T21:49:36.863Z,96977.16
2023-02-11T21:52:03.553Z,96963.13
2023-02-11T21:54:32.086Z,96977.66
2023-02-11T21:57:00.000Z,96980.25
2023-02-11T21:59:26.553Z,96953.63
2023-02-11T22:01:53.080Z,96968.88
2023-02-11T22:04:19.892Z,96961.09
2023-02-11T22:06:46.531Z,96964.16
2023-02-11T22:09:13.349Z,96968.28
2023-02-11T22:11:39.957Z,96961.56
2023-02-11T22:14:07.124Z,96972.19
2023-02-11T22:16:33.931Z,96954.38
2023-02-11T22:19:02.507Z,96960.28
2023-02-11T22:21:30.076Z,96956.91
2023-02-11T22:23:56.770Z,96953.34
2023-02-11T22:26:25.366Z,96957.47
2023-02-11T22:28:53.603Z,96954.88
2023-02-11T22:31:26.370Z,96944.47
2023-02-11T22:33:53.096Z,96954.66
2023-02-11T22:36:25.410Z,96955.19
2023-02-11T22:38:52.694Z,96958.28
2023-02-11T22:41:20.505Z,96964.81
2023-02-11T22:43:47.528Z,96963.28
2023-02-11T22:46:16.655Z,96950.41
2023-02-11T22:48:43.776Z,96957.09
2023-02-11T22:51:13.084Z,96951.91
2023-02-11T22:53:40.444Z,96954.50
2023-02-11T22:56:09.936Z,96957.63
2023-02-11T22:58:36.617Z,96963.31
2023-02-11T23:01:04.633Z,96957.09
2023-02-11T23:03:31.485Z,96960.47
2023-02-11T23:05:59.258Z,96964.38
2023-02-11T23:08:27.239Z,96967.97
2023-02-11T23:10:53.940Z,96958.66
2023-02-11T23:13:20.718Z,96971.34
2023-02-11T23:15:47.942Z,96965.38
2023-02-11T23:18:15.325Z,96970.56
2023-02-11T23:20:43.632Z,96967.97
2023-02-11T23:23:10.401Z,96979.53
2023-02-11T23:25:43.299Z,96983.84
2023-02-11T23:28:11.907Z,96984.13
2023-02-11T23:30:38.823Z,96988.59
2023-02-11T23:33:05.400Z,96984.00
2023-02-11T23:35:32.970Z,96983.00
2023-02-11T23:37:59.502Z,96973.72
2023-02-11T23:40:26.082Z,96987.13
2023-02-11T23:42:52.877Z,96986.09
2023-02-11T23:45:19.465Z,96988.44
2023-02-11T23:47:47.681Z,96997.75
2023-02-11T23:50:14.522Z,96990.75
2023-02-11T23:52:41.524Z,96988.41
2023-02-11T23:55:09.021Z,96985.06
2023-02-11T23:57:36.367Z,96971.63
